Time;durP1;ratioP1;P1;durP2;ratioP2;P2;SDS_P1;SDS_P2;PMS_P1;PMS_P2;Temp;Humidity;BMP_temperature;BMP_pressure;BME280_temperature;BME280_humidity;BME280_pressure;Samples;Min_cycle;Max_cycle;Signal;HPM_P1;HPM_P2
2022/08/26 00:01:36;;;;;;;11.02;3.85;;;;;;;22.19;82.12;101391.53;5146849;28;20045;-77
2022/08/26 00:04:08;;;;;;;13.23;4.22;;;;;;;22.30;81.86;101388.63;5148289;28;20023;-77
2022/08/26 00:06:40;;;;;;;10.57;4.43;;;;;;;22.42;80.68;101391.84;5147666;28;20032;-78
2022/08/26 00:09:12;;;;;;;15.20;5.60;;;;;;;22.15;82.14;101393.66;5148086;28;20066;-78
2022/08/26 00:11:44;;;;;;;14.35;6.57;;;;;;;22.16;81.51;101389.16;5147446;28;20402;-78
2022/08/26 00:14:15;;;;;;;16.60;5.97;;;;;;;22.23;81.60;101399.06;5146688;29;20046;-78
2022/08/26 00:16:47;;;;;;;12.50;6.27;;;;;;;21.98;83.15;101388.22;5148529;29;20494;-78
2022/08/26 00:19:19;;;;;;;12.35;5.70;;;;;;;22.18;82.04;101404.03;5147374;29;20106;-77
2022/08/26 00:21:52;;;;;;;11.10;6.13;;;;;;;21.92;84.05;101402.19;5148067;28;20110;-78
2022/08/26 00:24:23;;;;;;;13.95;5.63;;;;;;;22.28;81.30;101403.09;5147552;28;20035;-77
2022/08/26 00:26:54;;;;;;;13.18;5.60;;;;;;;22.30;80.82;101404.63;5148937;28;20031;-77
2022/08/26 00:29:25;;;;;;;11.52;5.05;;;;;;;22.24;81.21;101400.75;5150930;29;20039;-77
2022/08/26 00:31:57;;;;;;;14.40;5.80;;;;;;;22.28;80.69;101403.09;5151510;29;20035;-78
2022/08/26 00:34:28;;;;;;;12.15;5.45;;;;;;;22.13;81.70;101395.66;5151488;28;20039;-77
2022/08/26 00:36:59;;;;;;;13.33;5.57;;;;;;;21.99;83.02;101399.72;5151241;29;20419;-78
2022/08/26 00:39:31;;;;;;;13.65;5.82;;;;;;;22.08;82.10;101408.63;5150511;28;20053;-78
2022/08/26 00:42:02;;;;;;;15.10;5.32;;;;;;;21.94;82.45;101394.84;5152714;29;20032;-77
2022/08/26 00:44:34;;;;;;;14.75;5.43;;;;;;;21.86;83.51;101405.44;5153714;28;20085;-77
2022/08/26 00:47:10;;;;;;;11.95;5.32;;;;;;;21.91;84.24;101412.97;5151984;29;20043;-77
2022/08/26 00:49:46;;;;;;;11.20;5.13;;;;;;;21.68;86.45;101398.25;5149590;28;20070;-77
2022/08/26 00:52:20;;;;;;;10.97;5.00;;;;;;;21.66;87.47;101399.41;5151210;28;20031;-77
2022/08/26 00:54:59;;;;;;;13.80;5.87;;;;;;;21.67;87.33;101396.59;5151151;28;20031;-78
2022/08/26 00:57:31;;;;;;;11.73;5.15;;;;;;;21.78;85.79;101400.84;5151105;28;20118;-77
2022/08/26 01:00:08;;;;;;;23.52;6.40;;;;;;;21.75;86.29;101404.66;5148547;28;20023;-77
2022/08/26 01:02:40;;;;;;;10.70;4.88;;;;;;;21.76;85.80;101400.97;5170462;23;20069;-78
2022/08/26 01:05:13;;;;;;;11.63;5.37;;;;;;;21.85;84.76;101399.25;5171239;28;20035;-77
2022/08/26 01:07:45;;;;;;;11.17;4.80;;;;;;;21.84;85.07;101412.75;5170848;28;20027;-77
2022/08/26 01:10:20;;;;;;;12.73;5.30;;;;;;;21.90;84.45;101408.63;5170876;28;20448;-78
2022/08/26 01:12:57;;;;;;;18.87;6.30;;;;;;;21.49;90.79;101410.75;5171052;28;20027;-77
2022/08/26 01:15:33;;;;;;;10.57;4.87;;;;;;;21.72;88.06;101406.78;5170324;28;20035;-78
2022/08/26 01:18:06;;;;;;;13.57;4.57;;;;;;;21.66;88.05;101418.88;5171297;28;20042;-78
2022/08/26 01:20:46;;;;;;;10.18;4.97;;;;;;;21.66;87.93;101413.56;5170576;28;20402;-77
2022/08/26 01:23:18;;;;;;;8.13;4.47;;;;;;;21.72;86.63;101409.44;5170895;28;20019;-77
2022/08/26 01:25:55;;;;;;;12.93;4.40;;;;;;;21.74;86.28;101405.66;5173253;28;20458;-77
2022/08/26 01:28:30;;;;;;;8.70;3.93;;;;;;;21.54;88.29;101401.47;5172682;28;20505;-77
2022/08/26 01:31:03;;;;;;;8.20;4.33;;;;;;;21.58;87.88;101405.47;5169725;28;20041;-78
2022/08/26 01:33:46;;;;;;;14.18;5.35;;;;;;;21.61;88.01;101407.84;5170599;28;20027;-78
2022/08/26 01:36:18;;;;;;;15.43;5.43;;;;;;;21.71;85.98;101392.59;5169999;28;20023;-77
2022/08/26 01:38:49;;;;;;;11.23;4.47;;;;;;;21.44;88.70;101405.03;5170117;28;20037;-77
2022/08/26 01:41:21;;;;;;;10.77;4.17;;;;;;;21.54;87.47;101396.94;5170208;28;20050;-78
2022/08/26 01:43:55;;;;;;;9.53;4.17;;;;;;;21.38;89.30;101397.63;5169526;28;20125;-78
2022/08/26 01:46:28;;;;;;;13.65;4.13;;;;;;;21.59;87.14;101413.31;5169919;28;20120;-77
2022/08/26 01:49:03;;;;;;;10.13;4.43;;;;;;;21.49;88.06;101413.41;5168895;28;20122;-77
2022/08/26 01:51:38;;;;;;;10.83;4.07;;;;;;;21.31;89.41;101410.69;5169329;28;20027;-78
2022/08/26 01:54:10;;;;;;;8.37;3.10;;;;;;;21.27;89.29;101401.34;5173374;28;20027;-77
2022/08/26 01:56:42;;;;;;;8.67;3.17;;;;;;;21.30;88.54;101408.19;5171774;28;20034;-77
2022/08/26 01:59:15;;;;;;;11.32;4.28;;;;;;;21.21;90.07;101397.44;5168504;28;20031;-73
2022/08/26 02:01:47;;;;;;;8.77;3.28;;;;;;;21.26;89.56;101404.97;5170227;28;20066;-78
2022/08/26 02:04:31;;;;;;;7.23;3.37;;;;;;;21.34;88.59;101406.91;5168084;28;20034;-77
2022/08/26 02:07:06;;;;;;;9.75;3.33;;;;;;;21.12;91.19;101407.16;5169894;28;20157;-77
2022/08/26 02:09:39;;;;;;;7.63;2.70;;;;;;;21.34;88.85;101420.22;5169614;28;20098;-78
2022/08/26 02:12:13;;;;;;;8.13;2.80;;;;;;;21.26;88.70;101411.16;5170306;28;20031;-77
2022/08/26 02:14:56;;;;;;;8.93;2.90;;;;;;;21.15;90.08;101398.06;5169118;28;20069;-78
2022/08/26 02:17:32;;;;;;;8.43;2.40;;;;;;;21.23;89.27;101415.94;5170026;28;20030;-78
2022/08/26 02:20:05;;;;;;;13.07;2.60;;;;;;;21.07;90.58;101411.28;5169519;28;20031;-77
2022/08/26 02:22:37;;;;;;;12.13;2.50;;;;;;;21.14;89.46;101418.50;5169822;28;20029;-77
2022/08/26 02:25:14;;;;;;;12.00;2.57;;;;;;;21.32;88.14;101430.19;5169286;28;20031;-78
2022/08/26 02:27:46;;;;;;;8.67;2.53;;;;;;;21.18;89.51;101427.03;5168637;28;20064;-78
2022/08/26 02:30:23;;;;;;;9.63;2.63;;;;;;;21.32;87.90;101433.69;5168370;28;20666;-78
2022/08/26 02:32:57;;;;;;;5.97;1.83;;;;;;;21.15;89.54;101430.81;5169582;28;20045;-77
2022/08/26 02:35:30;;;;;;;6.82;2.25;;;;;;;21.22;87.83;101422.25;5169098;28;20030;-78
2022/08/26 02:38:04;;;;;;;8.13;2.22;;;;;;;21.11;88.89;101433.94;5169326;28;20031;-77
2022/08/26 02:40:39;;;;;;;;;;;;;;;21.52;84.39;101441.59;5169661;28;20022;-77
2022/08/26 02:43:11;;;;;;;7.57;1.95;;;;;;;21.00;88.88;101438.47;5169297;28;20443;-77
2022/08/26 02:45:42;;;;;;;6.90;1.97;;;;;;;20.87;90.42;101441.47;5168160;28;20672;-78
2022/08/26 02:48:16;;;;;;;6.30;2.13;;;;;;;21.10;88.14;101426.97;5168958;28;20084;-77
2022/08/26 02:50:48;;;;;;;10.85;2.63;;;;;;;21.01;88.94;101437.50;5167890;28;20595;-78
2022/08/26 02:53:19;;;;;;;7.93;2.23;;;;;;;21.13;87.62;101424.00;5168824;28;20414;-78
2022/08/26 02:55:50;;;;;;;12.57;2.27;;;;;;;21.08;88.45;101428.91;5169571;28;20050;-77
2022/08/26 02:58:22;;;;;;;5.60;2.20;;;;;;;21.16;87.40;101437.00;5168527;28;20050;-78
2022/08/26 03:00:53;;;;;;;13.27;2.30;;;;;;;21.14;86.87;101431.81;5168339;28;20655;-77
2022/08/26 03:03:25;;;;;;;7.77;1.87;;;;;;;21.06;87.67;101441.53;5168722;28;20061;-78
2022/08/26 03:05:56;;;;;;;8.27;2.13;;;;;;;20.88;89.88;101434.28;5169261;28;20308;-78
2022/08/26 03:08:27;;;;;;;7.87;2.47;;;;;;;20.89;89.37;101426.16;5172900;28;20031;-77
2022/08/26 03:10:59;;;;;;;4.87;2.13;;;;;;;20.94;89.49;101439.06;5170019;28;20067;-77
2022/08/26 03:13:30;;;;;;;7.27;2.77;;;;;;;20.79;91.75;101434.19;5169627;28;20053;-78
2022/08/26 03:16:02;;;;;;;7.37;2.50;;;;;;;20.74;93.42;101433.78;5168690;28;20090;-78
2022/08/26 03:18:34;;;;;;;7.70;2.60;;;;;;;20.75;94.07;101432.78;5168490;28;20282;-77
2022/08/26 03:21:13;;;;;;;6.27;2.47;;;;;;;20.90;92.28;101429.66;5168285;28;20445;-78
2022/08/26 03:23:44;;;;;;;8.57;3.23;;;;;;;21.03;91.11;101422.19;5168619;28;20030;-78
2022/08/26 03:26:16;;;;;;;9.33;3.27;;;;;;;20.90;93.47;101432.31;5168483;28;20026;-78
2022/08/26 03:31:37;;;;;;;7.57;2.87;;;;;;;21.00;91.68;101441.13;5167980;28;20417;-78
2022/08/26 03:34:09;;;;;;;10.30;3.30;;;;;;;20.99;90.63;101426.16;5168635;28;20026;-77
2022/08/26 03:36:41;;;;;;;9.73;3.07;;;;;;;20.85;93.42;101440.75;5167732;28;20118;-78
2022/08/26 03:39:12;;;;;;;8.93;2.87;;;;;;;21.05;91.49;101437.22;5168482;28;20478;-78
2022/08/26 03:41:44;;;;;;;10.17;3.63;;;;;;;20.95;92.95;101440.75;5168049;28;20465;-78
2022/08/26 03:44:15;;;;;;;7.60;3.10;;;;;;;20.86;93.31;101436.25;5166924;28;20106;-77
2022/08/26 03:46:46;;;;;;;11.00;2.50;;;;;;;21.05;90.83;101437.22;5168157;28;20122;-78
2022/08/26 03:49:17;;;;;;;7.07;2.87;;;;;;;21.09;90.16;101438.56;5167740;28;20038;-78
2022/08/26 03:51:49;;;;;;;6.20;2.37;;;;;;;21.07;89.91;101432.59;5166997;28;20027;-77
2022/08/26 03:54:20;;;;;;;8.23;3.00;;;;;;;20.95;91.37;101443.41;5166890;28;20077;-77
2022/08/26 03:56:51;;;;;;;7.90;2.70;;;;;;;21.02;90.82;101444.50;5168093;28;20489;-78
2022/08/26 03:59:23;;;;;;;11.87;3.10;;;;;;;20.98;91.12;101443.09;5166917;28;20438;-77
2022/08/26 04:01:54;;;;;;;10.57;2.80;;;;;;;20.94;90.99;101432.91;5168417;28;20398;-78
2022/08/26 04:04:25;;;;;;;9.30;2.83;;;;;;;20.72;94.61;101446.38;5172437;28;20035;-78
2022/08/26 04:06:57;;;;;;;10.33;2.30;;;;;;;20.80;94.40;101438.50;5170740;28;20034;-78
2022/08/26 04:09:29;;;;;;;10.90;2.70;;;;;;;20.97;91.70;101440.59;5172417;28;20026;-78
2022/08/26 04:12:02;;;;;;;6.57;2.20;;;;;;;20.93;91.95;101437.34;5171077;28;20038;-77
2022/08/26 04:14:36;;;;;;;16.60;3.33;;;;;;;20.96;91.83;101437.13;5171188;28;20039;-77
2022/08/26 04:17:07;;;;;;;9.60;3.45;;;;;;;21.01;90.88;101444.66;5171383;28;20385;-77
2022/08/26 04:19:39;;;;;;;8.37;3.17;;;;;;;21.01;90.90;101440.19;5171541;28;20023;-77
2022/08/26 04:22:11;;;;;;;12.50;3.07;;;;;;;21.00;90.82;101437.63;5171673;28;20035;-78
2022/08/26 04:24:42;;;;;;;7.67;2.60;;;;;;;20.77;92.71;101438.81;5171722;28;20050;-78
2022/08/26 04:27:14;;;;;;;7.33;2.60;;;;;;;20.95;91.04;101435.41;5171590;28;20089;-78
2022/08/26 04:29:45;;;;;;;6.07;3.03;;;;;;;20.84;92.99;101443.56;5170801;28;20038;-77
2022/08/26 04:32:17;;;;;;;9.57;2.40;;;;;;;20.77;92.85;101427.34;5171791;28;20050;-77
2022/08/26 04:34:48;;;;;;;7.60;2.17;;;;;;;20.75;93.17;101435.44;5171662;28;20069;-77
2022/08/26 04:37:19;;;;;;;7.47;2.30;;;;;;;20.91;91.55;101434.00;5171320;28;20029;-78
2022/08/26 04:39:51;;;;;;;9.40;2.87;;;;;;;20.80;92.38;101433.19;5172053;28;20106;-78
2022/08/26 04:42:23;;;;;;;9.30;2.47;;;;;;;20.85;91.76;101439.91;5169403;28;20066;-77
2022/08/26 04:44:54;;;;;;;10.37;2.30;;;;;;;20.75;92.02;101438.09;5170930;28;20116;-78
2022/08/26 04:47:26;;;;;;;10.17;2.50;;;;;;;20.79;92.15;101443.97;5171254;28;20034;-78
2022/08/26 04:49:57;;;;;;;8.50;2.03;;;;;;;20.67;93.12;101440.66;5172962;28;20074;-77
2022/08/26 04:52:29;;;;;;;11.70;2.47;;;;;;;20.86;91.98;101450.41;5175554;28;20029;-77
2022/08/26 04:55:00;;;;;;;8.40;1.63;;;;;;;20.78;92.62;101440.50;5171506;28;20030;-78
2022/08/26 04:57:32;;;;;;;13.20;3.07;;;;;;;20.75;92.09;101440.78;5171139;28;20035;-77
2022/08/26 05:00:05;;;;;;;11.17;2.67;;;;;;;20.91;90.60;101444.63;5170433;28;20041;-78
2022/08/26 05:02:37;;;;;;;10.20;2.08;;;;;;;20.80;91.69;101438.50;5171132;28;20053;-77
2022/08/26 05:05:08;;;;;;;7.13;1.83;;;;;;;20.67;93.81;101448.66;5170829;28;20031;-77
2022/08/26 05:07:40;;;;;;;12.13;2.50;;;;;;;20.80;91.99;101445.69;5171391;28;20067;-77
2022/08/26 05:10:11;;;;;;;8.00;2.70;;;;;;;20.86;91.39;101447.75;5170923;28;20030;-77
2022/08/26 05:12:42;;;;;;;9.48;2.28;;;;;;;20.85;91.28;101445.22;5173088;28;20045;-77
2022/08/26 05:15:14;;;;;;;7.07;2.00;;;;;;;20.78;91.81;101448.50;5168750;28;20045;-77
2022/08/26 05:17:45;;;;;;;11.67;2.57;;;;;;;20.71;92.66;101451.84;5170528;28;20035;-77
2022/08/26 05:20:16;;;;;;;7.50;2.00;;;;;;;20.57;94.01;101445.16;5170692;28;20027;-76
2022/08/26 05:22:47;;;;;;;7.73;2.60;;;;;;;20.80;92.41;101451.81;5169419;28;20026;-77
2022/08/26 05:25:19;;;;;;;10.13;2.20;;;;;;;20.82;91.89;101448.19;5170764;28;20034;-76
2022/08/26 05:27:50;;;;;;;9.53;2.20;;;;;;;20.65;94.77;101450.59;5170841;28;20037;-77
2022/08/26 05:30:22;;;;;;;8.53;1.80;;;;;;;20.89;91.93;101450.13;5169412;28;20426;-77
2022/08/26 05:32:53;;;;;;;5.87;1.50;;;;;;;20.87;92.11;101449.44;5170521;28;20065;-77
2022/08/26 05:35:30;;;;;;;12.83;2.20;;;;;;;20.89;91.65;101457.28;5170202;28;20023;-77
2022/08/26 05:38:05;;;;;;;8.47;2.20;;;;;;;20.91;91.48;101465.94;5170383;28;20118;-77
2022/08/26 05:40:39;;;;;;;10.33;2.17;;;;;;;20.79;92.83;101457.28;5170194;28;20030;-78
2022/08/26 05:43:12;;;;;;;;;;;;;;;21.13;88.29;101458.59;5169881;28;20027;-77
2022/08/26 05:45:46;;;;;;;5.97;1.57;;;;;;;20.88;92.22;101467.09;5170053;28;20032;-78
2022/08/26 05:48:20;;;;;;;7.63;2.07;;;;;;;20.97;91.07;101465.41;5170169;28;20046;-78
2022/08/26 05:50:52;;;;;;;9.30;1.95;;;;;;;20.88;92.37;101471.56;5170192;28;20094;-77
2022/08/26 05:53:24;;;;;;;7.40;2.10;;;;;;;20.94;91.44;101468.38;5170156;28;20027;-77
2022/08/26 05:55:55;;;;;;;10.23;2.17;;;;;;;20.76;93.35;101474.41;5170364;28;20085;-76
2022/08/26 05:58:26;;;;;;;7.93;1.80;;;;;;;20.92;91.74;101473.81;5169309;28;20039;-77
2022/08/26 06:01:11;;;;;;;9.10;1.70;;;;;;;20.87;93.23;101481.38;5169762;28;20035;-76
2022/08/26 06:03:43;;;;;;;7.20;1.52;;;;;;;20.87;93.24;101496.50;5169705;28;20077;-80
2022/08/26 06:06:24;;;;;;;11.93;2.60;;;;;;;20.93;91.50;101490.59;5169711;28;20022;-81
2022/08/26 06:08:58;;;;;;;5.60;1.53;;;;;;;20.85;93.70;101494.00;5169958;28;20034;-80
2022/08/26 06:11:31;;;;;;;10.18;2.90;;;;;;;20.87;92.75;101499.16;5171840;28;20401;-82
2022/08/26 06:14:04;;;;;;;6.65;1.85;;;;;;;20.97;91.36;101500.00;5168023;28;20398;-80
2022/08/26 06:16:39;;;;;;;10.80;1.85;;;;;;;20.97;90.75;101497.34;5169368;28;20019;-81
2022/08/26 06:19:13;;;;;;;8.70;2.00;;;;;;;21.02;90.67;101495.09;5169017;28;20030;-80
2022/08/26 06:21:46;;;;;;;6.68;1.70;;;;;;;20.99;91.72;101500.72;5171124;28;20022;-80
2022/08/26 06:27:12;;;;;;;6.97;1.47;;;;;;;21.06;90.17;101513.44;5168404;28;20041;-80
2022/08/26 06:29:43;;;;;;;7.05;2.00;;;;;;;21.01;89.77;101503.22;5167324;28;20035;-80
2022/08/26 06:32:16;;;;;;;9.80;2.57;;;;;;;21.14;88.73;101503.72;5169268;28;20087;-81
2022/08/26 06:34:47;;;;;;;4.53;1.17;;;;;;;21.15;89.19;101509.91;5171779;28;20653;-82
2022/08/26 06:37:19;;;;;;;7.03;1.85;;;;;;;21.14;88.70;101509.06;5168378;28;20023;-84
2022/08/26 06:39:50;;;;;;;7.97;1.90;;;;;;;21.05;89.48;101509.09;5167154;28;20035;-83
2022/08/26 06:42:21;;;;;;;8.07;1.50;;;;;;;21.15;88.01;101501.91;5167034;28;20023;-84
2022/08/26 06:44:53;;;;;;;7.82;1.80;;;;;;;21.21;87.75;101514.63;5167176;28;20038;-84
2022/08/26 06:47:24;;;;;;;5.87;1.73;;;;;;;21.09;89.16;101514.00;5168611;28;20031;-83
2022/08/26 06:49:55;;;;;;;8.65;1.75;;;;;;;21.14;88.81;101516.19;5168749;28;20039;-83
2022/08/26 06:52:27;;;;;;;7.63;1.70;;;;;;;21.13;88.73;101511.88;5168458;28;20058;-81
2022/08/26 06:54:58;;;;;;;6.73;1.60;;;;;;;21.21;87.55;101511.97;5168890;28;20027;-83
2022/08/26 06:57:31;;;;;;;8.50;1.60;;;;;;;21.27;86.86;101516.72;5168375;28;20062;-84
2022/08/26 07:00:09;;;;;;;6.82;1.48;;;;;;;21.30;86.61;101525.41;5167928;28;20046;-84
2022/08/26 07:02:40;;;;;;;7.90;1.40;;;;;;;21.10;87.70;101517.50;5168235;28;20541;-83
2022/08/26 07:05:12;;;;;;;7.80;1.67;;;;;;;21.07;87.97;101526.59;5167239;28;20078;-84
2022/08/26 07:07:45;;;;;;;5.40;1.70;;;;;;;21.14;87.36;101514.38;5166984;28;20011;-75
2022/08/26 07:10:17;;;;;;;7.25;1.95;;;;;;;21.24;86.70;101518.84;5168543;28;20429;-83
2022/08/26 07:12:48;;;;;;;8.25;1.73;;;;;;;21.17;87.23;101513.28;5168840;28;20022;-83
2022/08/26 07:15:19;;;;;;;10.15;1.85;;;;;;;21.23;86.45;101518.00;5166967;28;20029;-83
2022/08/26 07:17:51;;;;;;;9.65;2.80;;;;;;;21.29;86.48;101511.25;5167215;28;20081;-84
2022/08/26 07:20:22;;;;;;;4.93;1.40;;;;;;;21.28;86.94;101510.41;5168051;28;20065;-83
2022/08/26 07:22:53;;;;;;;7.57;1.40;;;;;;;21.30;86.64;101517.41;5166427;28;20509;-83
2022/08/26 07:25:24;;;;;;;8.38;2.25;;;;;;;21.42;85.42;101526.88;5168120;28;20034;-84
2022/08/26 07:27:56;;;;;;;8.95;1.65;;;;;;;21.28;86.56;101515.75;5167519;28;20045;-83
2022/08/26 07:30:27;;;;;;;12.00;1.73;;;;;;;21.42;86.01;101526.06;5167813;28;20045;-83
2022/08/26 07:32:58;;;;;;;8.55;1.40;;;;;;;21.56;83.01;101527.38;5167734;28;20105;-84
2022/08/26 07:35:30;;;;;;;6.57;1.45;;;;;;;21.57;82.94;101529.91;5168110;28;20019;-84
2022/08/26 07:38:01;;;;;;;6.35;1.88;;;;;;;21.60;82.70;101534.09;5167336;28;20023;-85
2022/08/26 07:40:32;;;;;;;5.18;1.38;;;;;;;21.61;83.01;101535.75;5167962;28;20591;-85
2022/08/26 07:43:04;;;;;;;12.82;2.20;;;;;;;21.55;83.90;101537.22;5170263;28;20030;-86
2022/08/26 07:45:35;;;;;;;5.07;1.23;;;;;;;21.73;81.25;101539.09;5154740;28;20022;-84
2022/08/26 07:48:07;;;;;;;6.38;1.40;;;;;;;21.73;79.60;101547.91;5168240;28;20027;-80
2022/08/26 07:50:40;;;;;;;6.78;1.23;;;;;;;21.79;79.45;101542.97;5167100;28;20027;-79
2022/08/26 07:53:12;;;;;;;7.50;1.53;;;;;;;21.85;78.75;101537.09;5168004;28;20074;-78
2022/08/26 07:55:43;;;;;;;6.53;1.33;;;;;;;21.79;78.43;101534.97;5167441;28;20285;-76
2022/08/26 07:58:15;;;;;;;5.68;2.03;;;;;;;21.82;78.62;101538.19;5166576;28;20042;-78
2022/08/26 08:00:46;;;;;;;6.38;1.45;;;;;;;21.90;77.62;101542.81;5167114;28;20651;-83
2022/08/26 08:03:19;;;;;;;6.63;1.30;;;;;;;21.84;78.26;101543.38;5167377;28;20094;-82
2022/08/26 08:05:50;;;;;;;10.77;1.85;;;;;;;21.98;78.15;101542.88;5167970;28;20050;-81
2022/08/26 08:08:22;;;;;;;6.63;1.50;;;;;;;21.94;78.45;101549.50;5167337;28;20066;-81
2022/08/26 08:10:54;;;;;;;7.95;1.75;;;;;;;22.05;76.87;101544.94;5167714;28;20085;-81
2022/08/26 08:13:25;;;;;;;9.15;1.73;;;;;;;21.81;77.18;101546.34;5166276;28;20070;-81
2022/08/26 08:15:57;;;;;;;8.00;1.92;;;;;;;22.04;76.66;101551.25;5167990;28;20386;-81
2022/08/26 08:18:28;;;;;;;5.75;1.77;;;;;;;22.06;76.60;101554.63;5167788;28;20026;-81
2022/08/26 08:21:02;;;;;;;8.65;2.10;;;;;;;21.99;75.69;101539.22;5170131;28;20478;-81
2022/08/26 08:23:34;;;;;;;6.53;1.67;;;;;;;22.16;76.15;101551.88;5166171;28;20089;-87
2022/08/26 08:26:09;;;;;;;5.60;1.52;;;;;;;22.17;74.57;101546.41;5171663;28;20022;-84
2022/08/26 08:28:40;;;;;;;8.63;1.67;;;;;;;22.14;73.90;101544.03;5168349;28;20103;-85
2022/08/26 08:31:26;;;;;;;6.22;1.48;;;;;;;22.16;74.47;101549.22;5169749;28;20569;-84
2022/08/26 08:33:57;;;;;;;3.95;1.25;;;;;;;22.15;74.59;101553.69;5167025;28;20473;-86
2022/08/26 08:36:28;;;;;;;11.57;2.30;;;;;;;22.23;73.51;101556.47;5164862;28;20035;-84
2022/08/26 08:38:59;;;;;;;6.38;1.17;;;;;;;22.21;73.07;101545.09;5167508;28;20035;-85
2022/08/26 08:41:49;;;;;;;8.13;1.80;;;;;;;22.42;73.64;101553.78;5167329;28;20027;-85
2022/08/26 08:44:23;;;;;;;3.63;1.02;;;;;;;22.23;73.90;101560.97;5161225;28;20031;-84
2022/08/26 08:47:00;;;;;;;4.57;1.50;;;;;;;22.37;73.79;101546.25;5166887;28;20031;-85
2022/08/26 08:49:32;;;;;;;5.97;1.95;;;;;;;22.40;72.07;101551.28;5169479;28;20122;-85
2022/08/26 08:52:17;;;;;;;8.23;1.30;;;;;;;22.30;72.61;101554.03;5169719;28;20023;-84
2022/08/26 08:54:48;;;;;;;8.18;1.45;;;;;;;22.36;71.63;101556.06;5168064;28;20102;-86
2022/08/26 08:57:48;;;;;;;6.25;1.58;;;;;;;22.50;71.71;101561.03;5169990;28;20030;-88
2022/08/26 09:00:22;;;;;;;6.03;1.33;;;;;;;22.44;71.63;101558.00;5169289;28;20055;-83
2022/08/26 09:03:02;;;;;;;5.47;2.17;;;;;;;22.54;71.10;101554.38;5166416;28;20173;-84
2022/08/26 09:05:40;;;;;;;6.20;1.48;;;;;;;22.32;71.75;101554.72;5169214;28;20117;-81
2022/08/26 09:08:20;;;;;;;6.10;1.40;;;;;;;22.50;70.53;101566.38;5171700;28;20101;-85
2022/08/26 09:10:58;;;;;;;8.27;1.65;;;;;;;22.43;71.15;101566.16;5169785;28;20410;-80
2022/08/26 09:13:29;;;;;;;8.90;1.50;;;;;;;22.52;69.69;101564.38;5169334;28;20038;-86
2022/08/26 09:16:31;;;;;;;6.18;1.42;;;;;;;22.69;69.87;101571.53;5167955;28;20037;-83
2022/08/26 09:19:14;;;;;;;6.70;1.80;;;;;;;22.66;69.84;101563.84;5174619;28;20593;-83
2022/08/26 09:21:57;;;;;;;5.87;1.20;;;;;;;22.74;69.77;101562.25;5173848;28;20109;-81
2022/08/26 09:24:32;;;;;;;7.20;1.17;;;;;;;22.67;69.26;101565.53;5165072;28;20293;-83
2022/08/26 09:27:03;;;;;;;5.22;1.20;;;;;;;22.55;68.94;101558.75;5168802;28;20338;-83
2022/08/26 09:29:41;;;;;;;8.27;2.58;;;;;;;22.62;69.66;101565.16;5170471;28;20054;-85
2022/08/26 09:32:19;;;;;;;8.57;1.55;;;;;;;22.69;69.63;101568.06;5174632;28;20453;-84
2022/08/26 09:34:57;;;;;;;6.57;1.30;;;;;;;22.79;68.99;101579.47;5170159;28;20058;-83
2022/08/26 09:37:34;;;;;;;9.35;1.35;;;;;;;22.53;68.64;101576.72;5168387;28;20026;-80
2022/08/26 09:40:21;;;;;;;6.00;1.85;;;;;;;22.45;68.57;101582.81;5170804;28;20033;-81
2022/08/26 09:43:04;;;;;;;5.28;1.30;;;;;;;22.52;68.21;101564.38;5167083;28;20019;-81
2022/08/26 09:45:37;;;;;;;7.13;1.35;;;;;;;22.44;68.27;101574.00;5166219;28;20019;-86
2022/08/26 09:48:09;;;;;;;11.82;2.28;;;;;;;22.56;68.45;101576.41;5171135;28;20031;-81
2022/08/26 09:50:54;;;;;;;6.40;1.80;;;;;;;22.66;68.73;101577.19;5177612;28;20082;-83
2022/08/26 09:53:29;;;;;;;8.05;1.67;;;;;;;22.48;69.53;101574.53;5168569;28;20022;-83
2022/08/26 09:56:24;;;;;;;7.30;1.73;;;;;;;22.70;68.50;101583.06;5168771;28;20034;-82
2022/08/26 09:58:56;;;;;;;9.45;1.60;;;;;;;22.59;68.49;101570.75;5166785;28;20552;-83
2022/08/26 10:01:40;;;;;;;7.15;1.90;;;;;;;22.49;69.10;101578.88;5172970;28;20081;-84
2022/08/26 10:04:13;;;;;;;;;;;;;;;22.93;67.56;101587.91;5191069;28;20140;-83
2022/08/26 10:06:55;;;;;;;5.45;1.30;;;;;;;22.71;68.56;101587.41;5189841;28;20055;-84
2022/08/26 10:09:32;;;;;;;7.70;2.10;;;;;;;22.76;67.64;101579.78;5189735;28;20536;-83
2022/08/26 10:12:10;;;;;;;6.50;1.52;;;;;;;22.87;67.38;101578.69;5185447;28;20437;-77
2022/08/26 10:14:51;;;;;;;7.32;1.65;;;;;;;22.78;68.80;101584.97;5171568;28;20081;-79
2022/08/26 10:17:53;;;;;;;8.05;2.13;;;;;;;23.02;67.63;101575.47;5173905;28;20043;-78
2022/08/26 10:20:29;;;;;;;8.35;1.83;;;;;;;22.78;67.69;101580.47;5168162;28;20695;-78
2022/08/26 10:23:15;;;;;;;10.85;2.88;;;;;;;22.80;67.32;101577.63;5169439;28;20458;-77
2022/08/26 10:25:53;;;;;;;8.40;1.58;;;;;;;22.75;67.40;101575.44;5168197;28;20035;-78
2022/08/26 10:28:31;;;;;;;7.47;1.63;;;;;;;22.84;67.89;101579.84;5166471;28;20034;-78
2022/08/26 10:31:10;;;;;;;5.70;1.40;;;;;;;22.81;67.22;101582.81;5168992;28;20038;-78
2022/08/26 10:33:41;;;;;;;8.88;1.67;;;;;;;22.69;67.08;101566.22;5168966;28;20027;-78
2022/08/26 10:39:15;;;;;;;7.85;1.67;;;;;;;22.80;66.84;101577.63;5185165;28;20071;-76
2022/08/26 10:41:50;;;;;;;7.18;1.73;;;;;;;22.62;68.21;101581.16;5191897;28;20058;-76
2022/08/26 10:44:23;;;;;;;10.20;1.65;;;;;;;22.74;68.01;101572.94;5180768;28;20037;-77
2022/08/26 10:47:02;;;;;;;8.68;1.48;;;;;;;22.77;67.48;101572.59;5167039;28;20015;-78
2022/08/26 10:49:34;;;;;;;4.03;0.90;;;;;;;22.57;67.17;101578.09;5168068;28;20086;-77
2022/08/26 10:52:32;;;;;;;6.82;1.40;;;;;;;22.80;67.25;101572.28;5168518;28;20050;-78
2022/08/26 10:55:43;;;;;;;3.88;1.25;;;;;;;22.73;67.10;101582.75;5166028;28;20026;-78
2022/08/26 10:58:42;;;;;;;7.75;2.05;;;;;;;22.72;66.46;101576.59;5168725;28;20083;-77
2022/08/26 11:01:42;;;;;;;10.00;1.67;;;;;;;22.59;67.60;101581.44;5170626;28;20045;-77
2022/08/26 11:04:41;;;;;;;4.82;1.27;;;;;;;22.65;67.77;101585.38;5167995;28;20045;-72
2022/08/26 11:07:34;;;;;;;6.28;1.73;;;;;;;22.78;67.10;101577.78;5168130;28;20026;-77
2022/08/26 11:10:17;;;;;;;8.93;1.85;;;;;;;22.74;67.28;101580.94;5168330;28;20040;-79
2022/08/26 11:12:56;;;;;;;4.78;1.15;;;;;;;22.67;67.26;101581.53;5166666;28;20035;-82
2022/08/26 11:15:28;;;;;;;7.72;1.50;;;;;;;22.64;66.13;101573.03;5167860;28;20018;-83
2022/08/26 11:18:06;;;;;;;6.35;1.20;;;;;;;22.50;66.79;101571.72;5168641;28;20484;-82
2022/08/26 11:20:45;;;;;;;6.95;2.08;;;;;;;22.48;66.28;101578.03;5170736;28;20410;-84
2022/08/26 11:23:19;;;;;;;6.80;1.65;;;;;;;22.41;67.34;101578.81;5168821;28;20476;-86
2022/08/26 11:26:08;;;;;;;6.28;1.10;;;;;;;22.51;67.09;101584.06;5163726;28;20027;-82
2022/08/26 11:28:43;;;;;;;4.95;1.20;;;;;;;22.57;67.17;101586.94;5165295;28;20049;-80
2022/08/26 11:31:17;;;;;;;4.18;0.95;;;;;;;22.66;67.26;101571.00;5162690;28;20070;-81
2022/08/26 11:33:50;;;;;;;10.50;2.00;;;;;;;22.24;68.13;101579.47;5173802;28;20026;-84
2022/08/26 11:36:31;;;;;;;5.93;2.25;;;;;;;22.59;67.03;101576.94;5173830;28;20030;-85
2022/08/26 11:39:12;;;;;;;5.32;1.50;;;;;;;22.53;67.31;101576.72;5168264;28;20054;-82
2022/08/26 11:41:47;;;;;;;9.15;1.30;;;;;;;22.41;67.64;101582.28;5165650;28;20019;-86
2022/08/26 11:44:24;;;;;;;9.07;1.42;;;;;;;22.33;67.89;101587.56;5167947;28;20426;-81
2022/08/26 11:47:00;;;;;;;8.85;1.48;;;;;;;22.53;67.61;101587.41;5169913;28;20019;-83
2022/08/26 11:49:32;;;;;;;7.82;1.40;;;;;;;22.49;66.91;101581.53;5167423;28;20039;-84
2022/08/26 11:52:16;;;;;;;6.10;1.45;;;;;;;22.39;67.92;101581.63;5171604;28;20130;-84
2022/08/26 11:55:08;;;;;;;7.68;1.42;;;;;;;22.42;67.41;101570.63;5167447;28;20109;-87
2022/08/26 11:57:45;;;;;;;8.18;1.30;;;;;;;22.39;68.10;101588.78;5167220;28;20027;-82
2022/08/26 12:00:22;;;;;;;5.88;1.38;;;;;;;22.40;67.45;101595.78;5155646;28;20027;-82
2022/08/26 12:02:54;;;;;;;9.55;1.60;;;;;;;22.28;67.49;101589.84;5168861;28;20069;-83
2022/08/26 12:05:30;;;;;;;7.88;1.20;;;;;;;22.30;67.71;101582.53;5167004;28;20081;-81
2022/08/26 12:08:07;;;;;;;7.25;1.38;;;;;;;22.34;67.72;101589.25;5165891;28;20034;-83